sensor_id;sensor_type;location;lat;lon;timestamp;temperature;humidity
58993;DHT22;44782;0.000;0.000;2023-08-06T00:00:00;20.20;62.00
58993;DHT22;44782;0.000;0.000;2023-08-06T00:02:15;20.20;62.00
58993;DHT22;44782;0.000;0.000;2023-08-06T00:04:31;20.20;62.70
58993;DHT22;44782;0.000;0.000;2023-08-06T00:06:47;20.20;62.00
58993;DHT22;44782;0.000;0.000;2023-08-06T00:09:02;20.20;62.00
58993;DHT22;44782;0.000;0.000;2023-08-06T00:11:18;20.20;62.00
58993;DHT22;44782;0.000;0.000;2023-08-06T00:13:34;20.20;62.00
58993;DHT22;44782;0.000;0.000;2023-08-06T00:15:49;20.20;62.00
58993;DHT22;44782;0.000;0.000;2023-08-06T00:18:05;20.20;62.00
58993;DHT22;44782;0.000;0.000;2023-08-06T00:20:20;20.20;62.00
58993;DHT22;44782;0.000;0.000;2023-08-06T00:22:37;20.20;62.00
58993;DHT22;44782;0.000;0.000;2023-08-06T00:24:53;20.20;62.00
58993;DHT22;44782;0.000;0.000;2023-08-06T00:27:08;20.20;62.00
58993;DHT22;44782;0.000;0.000;2023-08-06T00:29:24;20.20;62.00
58993;DHT22;44782;0.000;0.000;2023-08-06T00:31:40;20.20;62.00
58993;DHT22;44782;0.000;0.000;2023-08-06T00:33:56;20.20;62.00
58993;DHT22;44782;0.000;0.000;2023-08-06T00:36:11;20.20;62.00
58993;DHT22;44782;0.000;0.000;2023-08-06T00:38:27;20.20;62.10
58993;DHT22;44782;0.000;0.000;2023-08-06T00:40:42;20.20;62.00
58993;DHT22;44782;0.000;0.000;2023-08-06T00:42:58;20.20;62.00
58993;DHT22;44782;0.000;0.000;2023-08-06T00:45:14;20.20;62.00
58993;DHT22;44782;0.000;0.000;2023-08-06T00:47:30;20.20;62.10
58993;DHT22;44782;0.000;0.000;2023-08-06T00:49:46;20.20;62.00
58993;DHT22;44782;0.000;0.000;2023-08-06T00:52:04;20.20;62.00
58993;DHT22;44782;0.000;0.000;2023-08-06T00:54:20;20.20;62.00
58993;DHT22;44782;0.000;0.000;2023-08-06T00:56:37;20.20;62.10
58993;DHT22;44782;0.000;0.000;2023-08-06T00:58:53;20.20;62.00
58993;DHT22;44782;0.000;0.000;2023-08-06T01:01:09;20.20;62.00
58993;DHT22;44782;0.000;0.000;2023-08-06T01:03:25;20.20;62.10
58993;DHT22;44782;0.000;0.000;2023-08-06T01:05:41;20.20;62.00
58993;DHT22;44782;0.000;0.000;2023-08-06T01:11:18;20.20;61.90
58993;DHT22;44782;0.000;0.000;2023-08-06T01:13:46;20.20;62.00
58993;DHT22;44782;0.000;0.000;2023-08-06T01:16:03;20.20;62.10
58993;DHT22;44782;0.000;0.000;2023-08-06T01:18:21;20.20;62.10
58993;DHT22;44782;0.000;0.000;2023-08-06T01:20:36;20.20;62.10
58993;DHT22;44782;0.000;0.000;2023-08-06T01:22:52;20.20;62.10
58993;DHT22;44782;0.000;0.000;2023-08-06T01:25:08;20.20;62.10
58993;DHT22;44782;0.000;0.000;2023-08-06T01:27:32;20.20;62.10
58993;DHT22;44782;0.000;0.000;2023-08-06T01:30:13;20.20;62.00
58993;DHT22;44782;0.000;0.000;2023-08-06T01:32:34;20.20;62.00
58993;DHT22;44782;0.000;0.000;2023-08-06T01:34:51;20.20;62.10
58993;DHT22;44782;0.000;0.000;2023-08-06T01:37:07;20.20;62.10
58993;DHT22;44782;0.000;0.000;2023-08-06T01:39:23;20.20;62.10
58993;DHT22;44782;0.000;0.000;2023-08-06T01:41:38;20.20;62.10
58993;DHT22;44782;0.000;0.000;2023-08-06T01:43:54;20.20;62.10
58993;DHT22;44782;0.000;0.000;2023-08-06T01:46:10;20.20;62.10
58993;DHT22;44782;0.000;0.000;2023-08-06T01:48:25;20.20;62.10
58993;DHT22;44782;0.000;0.000;2023-08-06T01:50:41;20.10;62.00
58993;DHT22;44782;0.000;0.000;2023-08-06T01:52:57;20.20;62.10
58993;DHT22;44782;0.000;0.000;2023-08-06T01:55:12;20.20;62.10
58993;DHT22;44782;0.000;0.000;2023-08-06T01:57:28;20.20;62.10
58993;DHT22;44782;0.000;0.000;2023-08-06T01:59:44;20.10;62.00
58993;DHT22;44782;0.000;0.000;2023-08-06T02:01:59;20.20;62.10
58993;DHT22;44782;0.000;0.000;2023-08-06T02:04:15;20.10;62.00
58993;DHT22;44782;0.000;0.000;2023-08-06T02:06:30;20.20;62.10
58993;DHT22;44782;0.000;0.000;2023-08-06T02:08:46;20.10;62.00
58993;DHT22;44782;0.000;0.000;2023-08-06T02:11:02;20.20;62.10
58993;DHT22;44782;0.000;0.000;2023-08-06T02:13:18;20.10;62.00
58993;DHT22;44782;0.000;0.000;2023-08-06T02:15:33;20.20;62.10
58993;DHT22;44782;0.000;0.000;2023-08-06T02:17:49;20.10;62.00
58993;DHT22;44782;0.000;0.000;2023-08-06T02:20:05;20.10;62.00
58993;DHT22;44782;0.000;0.000;2023-08-06T02:22:21;20.10;62.00
58993;DHT22;44782;0.000;0.000;2023-08-06T02:24:38;20.10;62.00
58993;DHT22;44782;0.000;0.000;2023-08-06T02:26:54;20.10;62.00
58993;DHT22;44782;0.000;0.000;2023-08-06T02:29:11;20.10;62.00
58993;DHT22;44782;0.000;0.000;2023-08-06T02:31:26;20.10;62.00
58993;DHT22;44782;0.000;0.000;2023-08-06T02:33:42;20.10;62.00
58993;DHT22;44782;0.000;0.000;2023-08-06T02:36:02;20.10;62.00
58993;DHT22;44782;0.000;0.000;2023-08-06T02:38:18;20.10;61.80
58993;DHT22;44782;0.000;0.000;2023-08-06T02:40:34;20.10;61.90
58993;DHT22;44782;0.000;0.000;2023-08-06T02:42:50;20.10;61.90
58993;DHT22;44782;0.000;0.000;2023-08-06T02:45:06;20.10;61.90
58993;DHT22;44782;0.000;0.000;2023-08-06T02:47:22;20.10;61.90
58993;DHT22;44782;0.000;0.000;2023-08-06T02:49:37;20.10;61.90
58993;DHT22;44782;0.000;0.000;2023-08-06T02:51:53;20.10;61.80
58993;DHT22;44782;0.000;0.000;2023-08-06T02:54:08;20.10;61.90
58993;DHT22;44782;0.000;0.000;2023-08-06T02:56:24;20.10;61.80
58993;DHT22;44782;0.000;0.000;2023-08-06T02:58:41;20.10;61.90
58993;DHT22;44782;0.000;0.000;2023-08-06T03:01:04;20.10;61.80
58993;DHT22;44782;0.000;0.000;2023-08-06T03:03:20;20.10;61.80
58993;DHT22;44782;0.000;0.000;2023-08-06T03:05:36;20.10;61.80
58993;DHT22;44782;0.000;0.000;2023-08-06T03:07:51;20.10;61.80
58993;DHT22;44782;0.000;0.000;2023-08-06T03:10:07;20.10;61.80
58993;DHT22;44782;0.000;0.000;2023-08-06T03:12:23;20.10;62.60
58993;DHT22;44782;0.000;0.000;2023-08-06T03:14:38;20.10;61.80
58993;DHT22;44782;0.000;0.000;2023-08-06T03:16:54;20.10;61.80
58993;DHT22;44782;0.000;0.000;2023-08-06T03:19:10;20.10;61.80
58993;DHT22;44782;0.000;0.000;2023-08-06T03:21:25;20.10;61.80
58993;DHT22;44782;0.000;0.000;2023-08-06T03:23:41;20.10;61.80
58993;DHT22;44782;0.000;0.000;2023-08-06T03:26:04;20.10;61.80
58993;DHT22;44782;0.000;0.000;2023-08-06T03:28:19;20.10;61.70
58993;DHT22;44782;0.000;0.000;2023-08-06T03:30:35;20.10;61.80
58993;DHT22;44782;0.000;0.000;2023-08-06T03:32:50;20.10;61.70
58993;DHT22;44782;0.000;0.000;2023-08-06T03:35:06;20.10;61.70
58993;DHT22;44782;0.000;0.000;2023-08-06T03:37:22;20.10;61.70
58993;DHT22;44782;0.000;0.000;2023-08-06T03:39:38;20.10;61.70
58993;DHT22;44782;0.000;0.000;2023-08-06T03:41:54;20.00;61.70
58993;DHT22;44782;0.000;0.000;2023-08-06T03:44:09;20.10;61.70
58993;DHT22;44782;0.000;0.000;2023-08-06T03:46:25;20.00;61.60
58993;DHT22;44782;0.000;0.000;2023-08-06T03:48:41;20.10;61.70
58993;DHT22;44782;0.000;0.000;2023-08-06T03:50:56;20.10;61.70
58993;DHT22;44782;0.000;0.000;2023-08-06T03:53:12;20.10;61.70
58993;DHT22;44782;0.000;0.000;2023-08-06T03:55:28;20.10;61.70
58993;DHT22;44782;0.000;0.000;2023-08-06T03:57:44;20.10;61.70
58993;DHT22;44782;0.000;0.000;2023-08-06T03:59:59;20.10;61.80
58993;DHT22;44782;0.000;0.000;2023-08-06T04:02:15;20.00;61.70
58993;DHT22;44782;0.000;0.000;2023-08-06T04:04:30;20.00;61.60
58993;DHT22;44782;0.000;0.000;2023-08-06T04:06:46;20.00;61.60
58993;DHT22;44782;0.000;0.000;2023-08-06T04:09:02;20.00;61.70
58993;DHT22;44782;0.000;0.000;2023-08-06T04:11:18;20.00;61.60
58993;DHT22;44782;0.000;0.000;2023-08-06T04:13:33;20.00;61.60
58993;DHT22;44782;0.000;0.000;2023-08-06T04:15:49;20.00;61.60
58993;DHT22;44782;0.000;0.000;2023-08-06T04:18:05;20.00;61.60
58993;DHT22;44782;0.000;0.000;2023-08-06T04:20:20;20.00;61.60
58993;DHT22;44782;0.000;0.000;2023-08-06T04:22:36;20.00;61.60
58993;DHT22;44782;0.000;0.000;2023-08-06T04:24:51;20.00;61.60
58993;DHT22;44782;0.000;0.000;2023-08-06T04:27:09;20.00;61.60
58993;DHT22;44782;0.000;0.000;2023-08-06T04:29:24;20.00;61.60
58993;DHT22;44782;0.000;0.000;2023-08-06T04:31:40;20.00;61.60
58993;DHT22;44782;0.000;0.000;2023-08-06T04:33:55;20.00;61.60
58993;DHT22;44782;0.000;0.000;2023-08-06T04:36:11;20.00;61.60
58993;DHT22;44782;0.000;0.000;2023-08-06T04:38:27;20.00;61.60
58993;DHT22;44782;0.000;0.000;2023-08-06T04:40:43;20.00;61.60
58993;DHT22;44782;0.000;0.000;2023-08-06T04:42:59;20.00;61.60
58993;DHT22;44782;0.000;0.000;2023-08-06T04:45:16;20.00;61.60
58993;DHT22;44782;0.000;0.000;2023-08-06T04:47:31;20.00;61.60
58993;DHT22;44782;0.000;0.000;2023-08-06T04:49:47;20.00;61.60
58993;DHT22;44782;0.000;0.000;2023-08-06T04:52:03;20.00;61.60
58993;DHT22;44782;0.000;0.000;2023-08-06T04:54:18;20.00;61.60
58993;DHT22;44782;0.000;0.000;2023-08-06T04:56:34;20.00;61.60
58993;DHT22;44782;0.000;0.000;2023-08-06T04:58:50;20.00;61.60
58993;DHT22;44782;0.000;0.000;2023-08-06T05:01:05;20.00;61.60
58993;DHT22;44782;0.000;0.000;2023-08-06T05:03:22;20.00;61.60
58993;DHT22;44782;0.000;0.000;2023-08-06T05:05:40;20.00;61.60
58993;DHT22;44782;0.000;0.000;2023-08-06T05:07:57;20.00;61.60
58993;DHT22;44782;0.000;0.000;2023-08-06T05:10:12;20.00;61.60
58993;DHT22;44782;0.000;0.000;2023-08-06T05:12:28;20.00;61.60
58993;DHT22;44782;0.000;0.000;2023-08-06T05:14:44;19.90;61.50
58993;DHT22;44782;0.000;0.000;2023-08-06T05:16:59;20.00;61.60
58993;DHT22;44782;0.000;0.000;2023-08-06T05:19:17;20.00;61.60
58993;DHT22;44782;0.000;0.000;2023-08-06T05:21:33;20.00;61.60
58993;DHT22;44782;0.000;0.000;2023-08-06T05:23:48;20.00;61.60
58993;DHT22;44782;0.000;0.000;2023-08-06T05:26:04;19.90;61.50
58993;DHT22;44782;0.000;0.000;2023-08-06T05:28:20;20.00;61.60
58993;DHT22;44782;0.000;0.000;2023-08-06T05:30:39;20.00;61.50
58993;DHT22;44782;0.000;0.000;2023-08-06T05:32:55;20.00;61.50
58993;DHT22;44782;0.000;0.000;2023-08-06T05:35:10;20.00;61.60
58993;DHT22;44782;0.000;0.000;2023-08-06T05:37:26;20.00;61.50
58993;DHT22;44782;0.000;0.000;2023-08-06T05:39:42;20.00;61.60
58993;DHT22;44782;0.000;0.000;2023-08-06T05:41:57;19.90;61.60
58993;DHT22;44782;0.000;0.000;2023-08-06T05:44:13;19.90;61.60
58993;DHT22;44782;0.000;0.000;2023-08-06T05:46:28;19.90;61.50
58993;DHT22;44782;0.000;0.000;2023-08-06T05:48:44;19.90;61.50
58993;DHT22;44782;0.000;0.000;2023-08-06T05:51:00;19.90;61.50
58993;DHT22;44782;0.000;0.000;2023-08-06T05:53:15;19.90;61.50
58993;DHT22;44782;0.000;0.000;2023-08-06T05:55:31;19.90;61.50
58993;DHT22;44782;0.000;0.000;2023-08-06T05:57:48;19.90;61.50
58993;DHT22;44782;0.000;0.000;2023-08-06T06:00:04;19.90;61.60
58993;DHT22;44782;0.000;0.000;2023-08-06T06:02:21;19.90;61.50
58993;DHT22;44782;0.000;0.000;2023-08-06T06:04:37;19.90;61.50
58993;DHT22;44782;0.000;0.000;2023-08-06T06:06:52;19.90;61.50
58993;DHT22;44782;0.000;0.000;2023-08-06T06:09:08;19.90;61.50
58993;DHT22;44782;0.000;0.000;2023-08-06T06:11:24;19.90;61.50
58993;DHT22;44782;0.000;0.000;2023-08-06T06:13:39;19.90;61.60
58993;DHT22;44782;0.000;0.000;2023-08-06T06:15:55;19.90;61.50
58993;DHT22;44782;0.000;0.000;2023-08-06T06:18:11;19.90;61.50
58993;DHT22;44782;0.000;0.000;2023-08-06T06:20:27;19.90;61.50
58993;DHT22;44782;0.000;0.000;2023-08-06T06:22:42;19.90;61.60
58993;DHT22;44782;0.000;0.000;2023-08-06T06:24:58;19.90;61.50
58993;DHT22;44782;0.000;0.000;2023-08-06T06:27:14;19.90;61.60
58993;DHT22;44782;0.000;0.000;2023-08-06T06:29:29;19.90;61.50
58993;DHT22;44782;0.000;0.000;2023-08-06T06:31:45;19.90;61.60
58993;DHT22;44782;0.000;0.000;2023-08-06T06:34:01;19.90;61.50
58993;DHT22;44782;0.000;0.000;2023-08-06T06:36:16;19.90;61.50
58993;DHT22;44782;0.000;0.000;2023-08-06T06:38:32;19.90;62.40
58993;DHT22;44782;0.000;0.000;2023-08-06T06:40:57;19.90;61.50
58993;DHT22;44782;0.000;0.000;2023-08-06T06:43:13;19.90;61.40
58993;DHT22;44782;0.000;0.000;2023-08-06T06:45:28;19.90;61.50
58993;DHT22;44782;0.000;0.000;2023-08-06T06:47:44;19.90;61.50
58993;DHT22;44782;0.000;0.000;2023-08-06T06:50:00;19.90;61.50
58993;DHT22;44782;0.000;0.000;2023-08-06T06:52:15;19.90;61.50
58993;DHT22;44782;0.000;0.000;2023-08-06T06:54:31;19.90;61.50
58993;DHT22;44782;0.000;0.000;2023-08-06T06:56:46;19.90;61.60
58993;DHT22;44782;0.000;0.000;2023-08-06T06:59:02;19.90;61.50
58993;DHT22;44782;0.000;0.000;2023-08-06T07:01:18;19.90;61.50
58993;DHT22;44782;0.000;0.000;2023-08-06T07:03:33;19.90;61.60
58993;DHT22;44782;0.000;0.000;2023-08-06T07:05:49;19.90;61.50
58993;DHT22;44782;0.000;0.000;2023-08-06T07:08:05;19.90;61.50
58993;DHT22;44782;0.000;0.000;2023-08-06T07:10:21;19.90;61.60
58993;DHT22;44782;0.000;0.000;2023-08-06T07:12:37;19.90;61.50
58993;DHT22;44782;0.000;0.000;2023-08-06T07:14:52;19.80;61.50
58993;DHT22;44782;0.000;0.000;2023-08-06T07:17:08;19.90;61.50
58993;DHT22;44782;0.000;0.000;2023-08-06T07:19:23;19.80;61.50
58993;DHT22;44782;0.000;0.000;2023-08-06T07:21:39;19.90;61.50
58993;DHT22;44782;0.000;0.000;2023-08-06T07:23:55;19.80;61.40
58993;DHT22;44782;0.000;0.000;2023-08-06T07:26:11;19.80;61.40
58993;DHT22;44782;0.000;0.000;2023-08-06T07:28:27;19.80;61.40
58993;DHT22;44782;0.000;0.000;2023-08-06T07:30:43;19.80;61.30
58993;DHT22;44782;0.000;0.000;2023-08-06T07:32:59;19.90;61.50
58993;DHT22;44782;0.000;0.000;2023-08-06T07:35:15;19.80;61.50
58993;DHT22;44782;0.000;0.000;2023-08-06T07:37:30;19.80;61.30
58993;DHT22;44782;0.000;0.000;2023-08-06T07:39:46;19.80;61.30
58993;DHT22;44782;0.000;0.000;2023-08-06T07:42:01;19.80;61.30
58993;DHT22;44782;0.000;0.000;2023-08-06T07:44:19;19.80;61.30
58993;DHT22;44782;0.000;0.000;2023-08-06T07:46:35;19.80;61.30
58993;DHT22;44782;0.000;0.000;2023-08-06T07:48:51;19.80;61.30
58993;DHT22;44782;0.000;0.000;2023-08-06T07:51:06;19.80;61.30
58993;DHT22;44782;0.000;0.000;2023-08-06T07:53:23;19.80;61.20
58993;DHT22;44782;0.000;0.000;2023-08-06T07:55:42;19.80;61.20
58993;DHT22;44782;0.000;0.000;2023-08-06T07:57:57;19.80;61.20
58993;DHT22;44782;0.000;0.000;2023-08-06T08:00:13;19.80;61.20
58993;DHT22;44782;0.000;0.000;2023-08-06T08:02:28;19.80;61.10
58993;DHT22;44782;0.000;0.000;2023-08-06T08:04:45;19.80;61.10
58993;DHT22;44782;0.000;0.000;2023-08-06T08:07:03;19.80;61.10
58993;DHT22;44782;0.000;0.000;2023-08-06T08:09:18;19.80;61.10
58993;DHT22;44782;0.000;0.000;2023-08-06T08:11:34;19.80;61.10
58993;DHT22;44782;0.000;0.000;2023-08-06T08:13:50;19.80;61.10
58993;DHT22;44782;0.000;0.000;2023-08-06T08:16:05;19.80;61.10
58993;DHT22;44782;0.000;0.000;2023-08-06T08:18:25;19.80;61.10
58993;DHT22;44782;0.000;0.000;2023-08-06T08:20:41;19.80;61.00
58993;DHT22;44782;0.000;0.000;2023-08-06T08:22:57;19.80;61.00
58993;DHT22;44782;0.000;0.000;2023-08-06T08:25:13;19.80;61.00
58993;DHT22;44782;0.000;0.000;2023-08-06T08:27:29;19.80;61.00
58993;DHT22;44782;0.000;0.000;2023-08-06T08:29:45;19.80;61.00
58993;DHT22;44782;0.000;0.000;2023-08-06T08:32:01;19.80;60.90
58993;DHT22;44782;0.000;0.000;2023-08-06T08:34:17;19.80;61.00
58993;DHT22;44782;0.000;0.000;2023-08-06T08:36:33;19.80;60.90
58993;DHT22;44782;0.000;0.000;2023-08-06T08:38:48;19.80;60.90
58993;DHT22;44782;0.000;0.000;2023-08-06T08:41:06;19.80;60.90
58993;DHT22;44782;0.000;0.000;2023-08-06T08:43:22;19.80;60.80
58993;DHT22;44782;0.000;0.000;2023-08-06T08:45:39;19.80;60.80
58993;DHT22;44782;0.000;0.000;2023-08-06T08:47:56;19.80;60.80
58993;DHT22;44782;0.000;0.000;2023-08-06T08:50:11;19.80;60.80
58993;DHT22;44782;0.000;0.000;2023-08-06T08:52:28;19.80;60.80
58993;DHT22;44782;0.000;0.000;2023-08-06T08:54:46;19.80;60.70
58993;DHT22;44782;0.000;0.000;2023-08-06T08:57:02;19.80;60.70
58993;DHT22;44782;0.000;0.000;2023-08-06T08:59:18;19.80;60.70
58993;DHT22;44782;0.000;0.000;2023-08-06T09:01:34;19.80;60.70
58993;DHT22;44782;0.000;0.000;2023-08-06T09:03:51;19.80;60.60
58993;DHT22;44782;0.000;0.000;2023-08-06T09:06:07;19.80;60.60
58993;DHT22;44782;0.000;0.000;2023-08-06T09:08:30;19.80;60.60
58993;DHT22;44782;0.000;0.000;2023-08-06T09:10:49;19.80;60.60
58993;DHT22;44782;0.000;0.000;2023-08-06T09:13:05;19.80;60.60
58993;DHT22;44782;0.000;0.000;2023-08-06T09:15:25;19.80;60.60
58993;DHT22;44782;0.000;0.000;2023-08-06T09:17:41;19.80;60.50
58993;DHT22;44782;0.000;0.000;2023-08-06T09:19:56;19.70;60.50
58993;DHT22;44782;0.000;0.000;2023-08-06T09:22:12;19.80;60.50
58993;DHT22;44782;0.000;0.000;2023-08-06T09:24:29;19.80;60.50
58993;DHT22;44782;0.000;0.000;2023-08-06T09:26:45;19.80;60.50
58993;DHT22;44782;0.000;0.000;2023-08-06T09:29:00;19.70;60.30
58993;DHT22;44782;0.000;0.000;2023-08-06T09:31:16;19.70;60.30
58993;DHT22;44782;0.000;0.000;2023-08-06T09:33:32;19.70;60.30
58993;DHT22;44782;0.000;0.000;2023-08-06T09:35:47;19.70;60.30
58993;DHT22;44782;0.000;0.000;2023-08-06T09:38:07;19.70;60.40
58993;DHT22;44782;0.000;0.000;2023-08-06T09:40:31;19.70;60.20
58993;DHT22;44782;0.000;0.000;2023-08-06T09:42:47;19.70;60.10
58993;DHT22;44782;0.000;0.000;2023-08-06T09:45:06;19.70;60.20
58993;DHT22;44782;0.000;0.000;2023-08-06T09:47:24;19.70;60.10
58993;DHT22;44782;0.000;0.000;2023-08-06T09:49:40;19.70;60.20
58993;DHT22;44782;0.000;0.000;2023-08-06T09:52:00;19.70;60.20
58993;DHT22;44782;0.000;0.000;2023-08-06T09:54:17;19.70;60.20
58993;DHT22;44782;0.000;0.000;2023-08-06T09:56:34;19.70;60.20
58993;DHT22;44782;0.000;0.000;2023-08-06T09:58:53;19.70;60.20
58993;DHT22;44782;0.000;0.000;2023-08-06T10:01:11;19.70;60.20
58993;DHT22;44782;0.000;0.000;2023-08-06T10:03:28;19.70;60.10
58993;DHT22;44782;0.000;0.000;2023-08-06T10:05:44;19.70;60.20
58993;DHT22;44782;0.000;0.000;2023-08-06T10:08:01;19.70;60.10
58993;DHT22;44782;0.000;0.000;2023-08-06T10:10:17;19.70;60.10
58993;DHT22;44782;0.000;0.000;2023-08-06T10:12:39;19.70;60.20
58993;DHT22;44782;0.000;0.000;2023-08-06T10:14:57;19.70;60.20
58993;DHT22;44782;0.000;0.000;2023-08-06T10:17:14;19.70;60.10
58993;DHT22;44782;0.000;0.000;2023-08-06T10:19:31;19.70;60.20
58993;DHT22;44782;0.000;0.000;2023-08-06T10:22:09;19.70;60.20
58993;DHT22;44782;0.000;0.000;2023-08-06T10:24:28;19.80;59.80
58993;DHT22;44782;0.000;0.000;2023-08-06T10:27:00;19.70;60.20
58993;DHT22;44782;0.000;0.000;2023-08-06T10:29:35;19.70;60.20
58993;DHT22;44782;0.000;0.000;2023-08-06T10:31:55;19.70;59.90
58993;DHT22;44782;0.000;0.000;2023-08-06T10:34:16;19.70;60.20
58993;DHT22;44782;0.000;0.000;2023-08-06T10:36:32;19.70;60.10
58993;DHT22;44782;0.000;0.000;2023-08-06T10:38:49;19.70;60.20
58993;DHT22;44782;0.000;0.000;2023-08-06T10:41:05;19.70;60.20
58993;DHT22;44782;0.000;0.000;2023-08-06T10:43:35;19.70;60.20
58993;DHT22;44782;0.000;0.000;2023-08-06T10:45:51;19.80;59.90
58993;DHT22;44782;0.000;0.000;2023-08-06T10:48:07;19.70;60.20
58993;DHT22;44782;0.000;0.000;2023-08-06T10:50:23;19.70;60.10
58993;DHT22;44782;0.000;0.000;2023-08-06T10:52:39;19.70;60.20
58993;DHT22;44782;0.000;0.000;2023-08-06T10:54:55;19.70;60.10
58993;DHT22;44782;0.000;0.000;2023-08-06T10:57:10;19.70;60.10
58993;DHT22;44782;0.000;0.000;2023-08-06T10:59:26;19.70;60.00
58993;DHT22;44782;0.000;0.000;2023-08-06T11:01:42;19.70;60.10
58993;DHT22;44782;0.000;0.000;2023-08-06T11:04:02;19.70;60.10
58993;DHT22;44782;0.000;0.000;2023-08-06T11:06:19;19.70;60.00
58993;DHT22;44782;0.000;0.000;2023-08-06T11:08:36;19.70;60.10
58993;DHT22;44782;0.000;0.000;2023-08-06T11:10:52;19.70;60.00
58993;DHT22;44782;0.000;0.000;2023-08-06T11:13:08;19.70;60.10
58993;DHT22;44782;0.000;0.000;2023-08-06T11:15:23;19.70;60.00
58993;DHT22;44782;0.000;0.000;2023-08-06T11:17:40;19.70;59.90
58993;DHT22;44782;0.000;0.000;2023-08-06T11:20:00;19.70;60.00
58993;DHT22;44782;0.000;0.000;2023-08-06T11:22:15;19.70;59.90
58993;DHT22;44782;0.000;0.000;2023-08-06T11:24:31;19.70;60.00
58993;DHT22;44782;0.000;0.000;2023-08-06T11:26:47;19.70;60.00
58993;DHT22;44782;0.000;0.000;2023-08-06T11:29:03;19.70;60.00
58993;DHT22;44782;0.000;0.000;2023-08-06T11:31:20;19.70;59.90
58993;DHT22;44782;0.000;0.000;2023-08-06T11:33:35;19.70;59.90
58993;DHT22;44782;0.000;0.000;2023-08-06T11:35:52;19.70;60.00
58993;DHT22;44782;0.000;0.000;2023-08-06T11:38:08;19.70;59.90
58993;DHT22;44782;0.000;0.000;2023-08-06T11:40:24;19.70;60.00
58993;DHT22;44782;0.000;0.000;2023-08-06T11:42:40;19.80;60.00
58993;DHT22;44782;0.000;0.000;2023-08-06T11:44:56;19.70;59.90
58993;DHT22;44782;0.000;0.000;2023-08-06T11:47:14;19.80;60.00
58993;DHT22;44782;0.000;0.000;2023-08-06T11:49:46;19.70;59.90
58993;DHT22;44782;0.000;0.000;2023-08-06T11:52:15;19.80;59.80
58993;DHT22;44782;0.000;0.000;2023-08-06T11:54:31;19.70;59.70
58993;DHT22;44782;0.000;0.000;2023-08-06T11:56:49;19.70;59.90
58993;DHT22;44782;0.000;0.000;2023-08-06T11:59:08;19.70;59.90
58993;DHT22;44782;0.000;0.000;2023-08-06T12:01:23;19.70;59.80
58993;DHT22;44782;0.000;0.000;2023-08-06T12:03:40;19.70;59.80
58993;DHT22;44782;0.000;0.000;2023-08-06T12:05:55;19.70;59.80
58993;DHT22;44782;0.000;0.000;2023-08-06T12:08:11;19.70;59.80
58993;DHT22;44782;0.000;0.000;2023-08-06T12:10:31;19.80;59.80
58993;DHT22;44782;0.000;0.000;2023-08-06T12:12:46;19.80;59.60
58993;DHT22;44782;0.000;0.000;2023-08-06T12:15:03;19.70;59.70
58993;DHT22;44782;0.000;0.000;2023-08-06T12:17:19;19.80;59.60
58993;DHT22;44782;0.000;0.000;2023-08-06T12:19:35;19.80;59.60
58993;DHT22;44782;0.000;0.000;2023-08-06T12:21:51;19.70;59.60
58993;DHT22;44782;0.000;0.000;2023-08-06T12:24:07;19.70;59.50
58993;DHT22;44782;0.000;0.000;2023-08-06T12:26:23;19.80;59.60
58993;DHT22;44782;0.000;0.000;2023-08-06T12:28:38;19.80;59.50
58993;DHT22;44782;0.000;0.000;2023-08-06T12:30:54;19.80;59.50
58993;DHT22;44782;0.000;0.000;2023-08-06T12:33:10;19.80;59.50
58993;DHT22;44782;0.000;0.000;2023-08-06T12:35:26;19.80;59.50
58993;DHT22;44782;0.000;0.000;2023-08-06T12:37:41;19.80;59.40
58993;DHT22;44782;0.000;0.000;2023-08-06T12:39:59;19.70;59.40
58993;DHT22;44782;0.000;0.000;2023-08-06T12:42:15;19.80;59.40
58993;DHT22;44782;0.000;0.000;2023-08-06T12:44:32;19.80;59.40
58993;DHT22;44782;0.000;0.000;2023-08-06T12:46:47;19.80;59.50
58993;DHT22;44782;0.000;0.000;2023-08-06T12:49:03;19.70;59.30
58993;DHT22;44782;0.000;0.000;2023-08-06T12:51:19;19.80;59.30
58993;DHT22;44782;0.000;0.000;2023-08-06T12:53:34;19.80;59.30
58993;DHT22;44782;0.000;0.000;2023-08-06T12:55:51;19.80;59.40
58993;DHT22;44782;0.000;0.000;2023-08-06T12:58:06;19.70;59.30
58993;DHT22;44782;0.000;0.000;2023-08-06T13:00:22;19.80;59.40
58993;DHT22;44782;0.000;0.000;2023-08-06T13:02:37;19.70;59.30
58993;DHT22;44782;0.000;0.000;2023-08-06T13:04:53;19.80;59.40
58993;DHT22;44782;0.000;0.000;2023-08-06T13:07:09;19.80;59.40
58993;DHT22;44782;0.000;0.000;2023-08-06T13:09:24;19.80;59.40
58993;DHT22;44782;0.000;0.000;2023-08-06T13:11:41;19.80;59.40
58993;DHT22;44782;0.000;0.000;2023-08-06T13:14:08;19.80;59.40
58993;DHT22;44782;0.000;0.000;2023-08-06T13:16:24;19.80;59.10
58993;DHT22;44782;0.000;0.000;2023-08-06T13:18:40;19.70;59.30
58993;DHT22;44782;0.000;0.000;2023-08-06T13:20:56;19.80;59.30
58993;DHT22;44782;0.000;0.000;2023-08-06T13:23:11;19.80;59.40
58993;DHT22;44782;0.000;0.000;2023-08-06T13:25:30;19.80;59.30
58993;DHT22;44782;0.000;0.000;2023-08-06T13:27:52;19.80;59.40
58993;DHT22;44782;0.000;0.000;2023-08-06T13:30:08;19.80;59.30
58993;DHT22;44782;0.000;0.000;2023-08-06T13:32:24;19.80;59.30
58993;DHT22;44782;0.000;0.000;2023-08-06T13:34:39;19.80;59.30
58993;DHT22;44782;0.000;0.000;2023-08-06T13:36:55;19.80;59.30
58993;DHT22;44782;0.000;0.000;2023-08-06T13:39:11;19.80;59.40
58993;DHT22;44782;0.000;0.000;2023-08-06T13:41:26;19.80;59.40
58993;DHT22;44782;0.000;0.000;2023-08-06T13:43:42;19.80;59.40
58993;DHT22;44782;0.000;0.000;2023-08-06T13:45:59;19.80;59.30
58993;DHT22;44782;0.000;0.000;2023-08-06T13:48:15;19.80;59.40
58993;DHT22;44782;0.000;0.000;2023-08-06T13:50:30;19.80;59.40
58993;DHT22;44782;0.000;0.000;2023-08-06T13:52:46;19.80;59.30
58993;DHT22;44782;0.000;0.000;2023-08-06T13:55:02;19.80;59.30
58993;DHT22;44782;0.000;0.000;2023-08-06T13:57:19;19.80;59.20
58993;DHT22;44782;0.000;0.000;2023-08-06T13:59:34;19.80;59.30
58993;DHT22;44782;0.000;0.000;2023-08-06T14:01:50;19.80;59.30
58993;DHT22;44782;0.000;0.000;2023-08-06T14:04:08;19.80;59.20
58993;DHT22;44782;0.000;0.000;2023-08-06T14:06:24;19.80;59.20
58993;DHT22;44782;0.000;0.000;2023-08-06T14:08:39;19.80;59.20
58993;DHT22;44782;0.000;0.000;2023-08-06T14:10:55;19.80;59.20
58993;DHT22;44782;0.000;0.000;2023-08-06T14:13:11;19.80;59.20
58993;DHT22;44782;0.000;0.000;2023-08-06T14:15:26;19.80;59.20
58993;DHT22;44782;0.000;0.000;2023-08-06T14:17:42;19.80;59.20
58993;DHT22;44782;0.000;0.000;2023-08-06T14:19:58;19.80;59.20
58993;DHT22;44782;0.000;0.000;2023-08-06T14:22:13;19.80;59.20
58993;DHT22;44782;0.000;0.000;2023-08-06T14:24:29;19.80;59.10
58993;DHT22;44782;0.000;0.000;2023-08-06T14:26:44;19.80;59.20
58993;DHT22;44782;0.000;0.000;2023-08-06T14:29:01;19.80;59.20
58993;DHT22;44782;0.000;0.000;2023-08-06T14:31:16;19.80;59.10
58993;DHT22;44782;0.000;0.000;2023-08-06T14:33:32;19.80;59.20
58993;DHT22;44782;0.000;0.000;2023-08-06T14:35:48;19.80;59.20
58993;DHT22;44782;0.000;0.000;2023-08-06T14:38:03;19.80;59.20